Time;durP1;ratioP1;P1;durP2;ratioP2;P2;SDS_P1;SDS_P2;PMS_P1;PMS_P2;Temp;Humidity;BMP_temperature;BMP_pressure;BME280_temperature;BME280_humidity;BME280_pressure;Samples;Min_cycle;Max_cycle;Signal;HPM_P1;HPM_P2
2024/01/04 00:04:13;;;;;;;0.70;0.30;;;;;;;17.24;60.33;99181.41;10535495;28;20521;-47
2024/01/04 00:09:13;;;;;;;1.13;0.37;;;;;;;17.27;60.15;99205.97;10525078;28;20290;-46
2024/01/04 00:14:14;;;;;;;0.70;0.30;;;;;;;17.24;59.97;99210.88;10485507;28;20286;-49
2024/01/04 00:19:14;;;;;;;1.73;0.30;;;;;;;17.22;60.84;99234.53;10493850;28;20290;-46
2024/01/04 00:24:15;;;;;;;1.08;0.30;;;;;;;17.23;59.48;99244.13;10479606;28;20077;-47
2024/01/04 00:29:16;;;;;;;0.47;0.30;;;;;;;17.26;60.59;99250.72;10493339;28;20407;-46
2024/01/04 00:34:16;;;;;;;0.75;0.30;;;;;;;17.23;60.28;99262.88;10474751;28;20267;-46
2024/01/04 00:39:17;;;;;;;0.73;0.30;;;;;;;17.27;60.98;99273.72;10492988;28;20082;-46
2024/01/04 00:44:18;;;;;;;1.25;0.45;;;;;;;17.28;60.73;99287.91;10474931;28;20282;-46
2024/01/04 00:49:18;;;;;;;0.93;0.40;;;;;;;17.24;60.14;99287.78;10492770;28;20108;-45
2024/01/04 00:54:18;;;;;;;1.30;0.40;;;;;;;17.25;60.71;99290.13;10491714;28;20286;-47
2024/01/04 00:59:19;;;;;;;0.45;0.20;;;;;;;17.25;60.76;99308.09;10492264;28;20305;-47
2024/01/04 01:04:19;;;;;;;0.53;0.40;;;;;;;17.23;60.22;99324.50;10473514;28;20044;-46
2024/01/04 01:09:19;;;;;;;1.90;0.40;;;;;;;17.28;59.37;99328.88;10491710;28;20296;-47
2024/01/04 01:14:20;;;;;;;0.63;0.20;;;;;;;17.24;60.29;99342.13;10532288;28;20657;-46
2024/01/04 01:19:20;;;;;;;6.90;0.63;;;;;;;17.22;60.27;99344.34;10533259;28;20298;-49
2024/01/04 01:24:20;;;;;;;1.10;0.40;;;;;;;17.27;59.91;99364.81;10532749;28;20285;-46
2024/01/04 01:29:21;;;;;;;0.73;0.30;;;;;;;17.25;60.60;99388.47;10533081;28;20281;-48
2024/01/04 01:34:21;;;;;;;0.87;0.40;;;;;;;17.22;60.96;99378.38;10532877;28;20437;-47
2024/01/04 01:39:21;;;;;;;0.93;0.43;;;;;;;17.25;60.46;99401.84;10532977;28;20327;-45
2024/01/04 01:44:21;;;;;;;0.50;0.30;;;;;;;17.25;60.49;99409.88;10532439;28;20285;-45
2024/01/04 01:49:22;;;;;;;1.40;0.47;;;;;;;17.23;59.98;99414.78;10532838;28;20280;-46
2024/01/04 01:54:22;;;;;;;0.68;0.30;;;;;;;17.24;60.34;99422.50;10532325;28;20276;-45
2024/01/04 01:59:23;;;;;;;1.50;0.32;;;;;;;17.24;59.86;99430.53;10532696;28;20035;-48
2024/01/04 02:04:24;;;;;;;0.45;0.30;;;;;;;17.24;60.46;99440.47;10513922;28;20032;-47
2024/01/04 02:09:24;;;;;;;0.40;0.20;;;;;;;17.27;61.05;99453.22;10537909;28;20054;-45
2024/01/04 02:14:24;;;;;;;0.10;0.10;;;;;;;17.25;60.72;99456.22;10540121;28;20289;-47
2024/01/04 02:19:26;;;;;;;0.40;0.30;;;;;;;17.23;59.52;99466.47;10540412;28;20273;-51
2024/01/04 02:24:26;;;;;;;0.80;0.40;;;;;;;17.27;60.78;99481.91;10521507;28;20022;-45
2024/01/04 02:29:26;;;;;;;0.50;0.40;;;;;;;17.25;59.92;99496.41;10540045;28;20024;-47
2024/01/04 02:34:27;;;;;;;0.40;0.20;;;;;;;17.23;59.97;99501.28;10539173;28;20032;-47
2024/01/04 02:39:27;;;;;;;0.52;0.20;;;;;;;17.24;59.73;99510.91;10539614;28;20289;-48
2024/01/04 02:44:27;;;;;;;0.77;0.20;;;;;;;17.25;59.89;99514.38;10539155;28;20031;-44
2024/01/04 02:49:29;;;;;;;0.97;0.43;;;;;;;17.23;61.00;99527.28;10520730;28;20282;-47
2024/01/04 02:54:29;;;;;;;1.15;0.60;;;;;;;17.25;59.21;99528.53;10538813;28;20784;-48
2024/01/04 02:59:29;;;;;;;0.50;0.17;;;;;;;17.22;60.90;99537.22;10520429;28;20024;-44
2024/01/04 03:04:29;;;;;;;0.80;0.20;;;;;;;17.21;60.61;99549.03;10520105;28;20670;-45
2024/01/04 03:09:30;;;;;;;3.67;0.87;;;;;;;17.25;59.66;99551.88;10525188;28;20274;-46
2024/01/04 03:14:30;;;;;;;0.73;0.50;;;;;;;17.24;61.10;99556.44;10504901;28;20796;-47
2024/01/04 03:19:30;;;;;;;1.03;0.20;;;;;;;17.23;59.68;99570.16;10530541;28;20459;-47
2024/01/04 03:24:32;;;;;;;1.35;0.30;;;;;;;17.23;60.93;99568.25;10537381;28;20783;-46
2024/01/04 03:29:32;;;;;;;0.75;0.25;;;;;;;17.24;60.17;99572.50;10537866;28;20408;-47
2024/01/04 03:34:33;;;;;;;0.90;0.20;;;;;;;17.25;59.61;99576.75;10537395;28;20024;-45
2024/01/04 03:39:34;;;;;;;1.25;0.28;;;;;;;17.26;60.04;99588.28;10537150;28;20306;-44
2024/01/04 03:44:34;;;;;;;0.47;0.20;;;;;;;17.25;59.64;99597.41;10536352;28;20111;-46
2024/01/04 03:49:34;;;;;;;0.63;0.30;;;;;;;17.23;60.16;99602.28;10536873;28;20765;-46
2024/01/04 03:54:35;;;;;;;1.57;0.40;;;;;;;17.24;59.51;99606.53;10536134;28;20371;-47
2024/01/04 03:59:36;;;;;;;0.10;0.10;;;;;;;17.25;60.01;99608.91;10536498;28;20312;-48
2024/01/04 04:04:36;;;;;;;1.65;0.40;;;;;;;17.23;59.94;99613.00;10535834;28;20817;-45
2024/01/04 04:09:36;;;;;;;0.30;0.20;;;;;;;17.27;59.50;99618.53;10521626;28;20021;-46
2024/01/04 04:14:37;;;;;;;0.77;0.20;;;;;;;17.26;60.16;99623.09;10529028;28;21140;-45
2024/01/04 04:19:37;;;;;;;0.57;0.20;;;;;;;17.23;59.81;99635.22;10535986;28;20334;-45
2024/01/04 04:24:37;;;;;;;0.67;0.67;;;;;;;17.25;60.48;99637.59;10534927;28;20447;-48
2024/01/04 04:29:40;;;;;;;0.43;0.30;;;;;;;17.26;60.68;99644.53;10534801;28;20277;-48
2024/01/04 04:34:41;;;;;;;1.55;0.55;;;;;;;17.24;60.57;99649.41;10530406;28;20315;-45
2024/01/04 04:39:41;;;;;;;0.47;0.30;;;;;;;17.25;60.15;99649.09;10487411;28;20081;-45
2024/01/04 04:44:42;;;;;;;1.98;1.33;;;;;;;17.27;60.29;99659.50;10534194;28;20043;-44
2024/01/04 04:49:42;;;;;;;1.33;0.50;;;;;;;17.41;60.53;99672.78;10502253;28;20028;-46
2024/01/04 04:54:42;;;;;;;2.17;0.43;;;;;;;17.43;59.76;99682.09;10505544;28;20274;-48
2024/01/04 04:59:44;;;;;;;1.00;0.60;;;;;;;17.41;61.00;99700.38;10508057;28;20309;-48
2024/01/04 05:04:45;;;;;;;0.73;0.50;;;;;;;17.39;60.61;99696.41;10505188;28;20278;-48
2024/01/04 05:09:45;;;;;;;0.57;0.45;;;;;;;17.37;61.57;99691.34;10513164;28;20039;-46
2024/01/04 05:14:46;;;;;;;0.98;0.43;;;;;;;17.26;62.14;99711.50;10532814;28;20142;-47
2024/01/04 05:19:46;;;;;;;0.88;0.43;;;;;;;17.18;61.58;99713.06;10533473;28;20038;-48
2024/01/04 05:24:46;;;;;;;0.97;0.50;;;;;;;17.18;61.22;99718.44;10532797;28;20039;-46
2024/01/04 05:29:47;;;;;;;1.03;0.40;;;;;;;17.15;61.72;99727.06;10532843;28;20267;-50
2024/01/04 05:34:47;;;;;;;0.77;0.50;;;;;;;17.15;61.65;99737.78;10512630;28;20024;-48
2024/01/04 05:39:47;;;;;;;1.47;0.80;;;;;;;17.17;61.13;99732.13;10523206;28;20273;-46
2024/01/04 05:44:48;;;;;;;2.00;0.70;;;;;;;17.15;61.29;99737.00;10530638;28;20301;-48
2024/01/04 05:49:48;;;;;;;1.50;0.45;;;;;;;17.10;61.11;99737.94;10532698;28;20039;-47
2024/01/04 05:54:48;;;;;;;0.70;0.40;;;;;;;17.12;60.62;99754.47;10513925;28;20023;-50
2024/01/04 05:59:49;;;;;;;0.77;0.50;;;;;;;17.16;60.86;99765.34;10532794;28;20028;-46
2024/01/04 06:04:49;;;;;;;1.10;0.60;;;;;;;17.17;62.06;99778.47;10532563;28;20302;-51
2024/01/04 06:09:49;;;;;;;2.43;0.50;;;;;;;17.19;60.72;99768.22;10516165;28;20313;-45
2024/01/04 06:14:51;;;;;;;0.45;0.40;;;;;;;17.18;60.89;99773.91;10527988;28;21173;-44
2024/01/04 06:19:51;;;;;;;0.68;0.40;;;;;;;17.16;60.99;99784.88;10531743;28;20097;-47
2024/01/04 06:24:51;;;;;;;5.77;0.87;;;;;;;17.17;61.82;99802.56;10532085;28;20028;-45
2024/01/04 06:29:52;;;;;;;5.32;0.90;;;;;;;17.22;60.94;99810.47;10531581;28;20394;-49
2024/01/04 06:34:52;;;;;;;3.83;0.60;;;;;;;17.17;60.35;99815.19;10532097;28;20424;-47
2024/01/04 06:39:52;;;;;;;4.20;0.63;;;;;;;17.23;61.71;99820.06;10513529;28;20024;-45
2024/01/04 06:44:53;;;;;;;7.43;1.48;;;;;;;17.32;62.16;99827.38;10531740;28;21257;-44
2024/01/04 06:49:53;;;;;;;7.85;1.50;;;;;;;17.38;62.44;99836.84;10531252;28;20028;-46
2024/01/04 06:54:53;;;;;;;4.67;1.30;;;;;;;17.40;62.72;99850.72;10536467;28;20028;-45
2024/01/04 06:59:54;;;;;;;11.30;1.40;;;;;;;17.32;62.08;99857.63;10538409;28;20367;-46
2024/01/04 07:04:54;;;;;;;5.45;1.40;;;;;;;17.36;62.22;99863.94;10538631;28;20323;-45
2024/01/04 07:09:54;;;;;;;7.37;0.90;;;;;;;17.38;61.86;99869.00;10503359;28;20020;-46
2024/01/04 07:14:55;;;;;;;11.68;1.70;;;;;;;17.30;61.78;99878.59;10534930;28;20478;-46
2024/01/04 07:19:55;;;;;;;13.63;1.73;;;;;;;17.24;62.43;99880.59;10536856;28;20024;-48
2024/01/04 07:24:56;;;;;;;13.83;1.77;;;;;;;17.23;63.01;99886.25;10537158;28;20021;-48
2024/01/04 07:29:58;;;;;;;11.77;1.52;;;;;;;17.23;62.37;99894.31;10519082;28;20262;-45
2024/01/04 07:34:58;;;;;;;15.63;2.00;;;;;;;17.20;62.87;99908.31;10537587;28;20445;-47
2024/01/04 07:39:59;;;;;;;7.47;1.80;;;;;;;17.19;62.63;99914.78;10536778;28;20054;-46
2024/01/04 07:44:59;;;;;;;6.87;1.17;;;;;;;17.17;62.13;99933.81;10536925;28;20644;-47
2024/01/04 07:49:59;;;;;;;14.15;2.13;;;;;;;17.13;61.87;99940.88;10533915;28;20285;-49
2024/01/04 07:55:00;;;;;;;23.13;2.28;;;;;;;17.08;62.33;99932.19;10534447;28;20502;-49
2024/01/04 08:00:00;;;;;;;15.85;3.00;;;;;;;17.06;63.38;99937.84;10536008;28;20038;-46
2024/01/04 08:05:00;;;;;;;17.80;2.00;;;;;;;17.03;62.64;99948.34;10535188;28;20028;-45
2024/01/04 08:10:01;;;;;;;17.97;1.83;;;;;;;17.00;61.90;99944.41;10505089;28;20299;-46
2024/01/04 08:15:01;;;;;;;27.75;2.60;;;;;;;17.04;62.00;99957.97;10512692;28;20340;-45
2024/01/04 08:20:03;;;;;;;24.43;4.00;;;;;;;17.00;62.90;99948.97;10533798;28;20027;-47
2024/01/04 08:25:04;;;;;;;23.35;4.43;;;;;;;17.02;63.02;99949.44;10535031;28;20305;-46
2024/01/04 08:30:05;;;;;;;20.30;3.90;;;;;;;17.03;62.53;99959.06;10534250;28;20016;-48
2024/01/04 08:35:05;;;;;;;19.75;3.45;;;;;;;17.00;61.58;99959.69;10535087;28;20099;-50
2024/01/04 08:40:06;;;;;;;16.55;3.55;;;;;;;17.06;61.02;99967.31;10533973;28;20028;-46
2024/01/04 08:45:08;;;;;;;15.50;3.30;;;;;;;17.13;61.99;99966.88;10534424;28;20103;-45
2024/01/04 08:50:09;;;;;;;20.75;3.13;;;;;;;17.10;62.08;99986.22;10533791;28;20520;-48
2024/01/04 08:55:10;;;;;;;19.30;3.53;;;;;;;17.07;62.23;99984.16;10534268;28;20043;-46
2024/01/04 09:00:11;;;;;;;12.68;2.22;;;;;;;17.04;60.87;100008.84;10533515;28;20036;-49
2024/01/04 09:05:12;;;;;;;9.07;3.05;;;;;;;17.07;60.84;100011.75;10534011;28;20071;-47
2024/01/04 09:10:12;;;;;;;10.73;3.00;;;;;;;17.11;61.87;99998.53;10532787;28;20048;-45
2024/01/04 09:15:13;;;;;;;7.45;2.47;;;;;;;17.10;60.41;100005.78;10533356;28;20020;-47
2024/01/04 09:20:13;;;;;;;11.13;2.55;;;;;;;17.12;61.91;100018.84;10532175;28;20024;-47
2024/01/04 09:25:14;;;;;;;18.75;2.58;;;;;;;17.12;61.82;100014.28;10533390;28;20707;-50
2024/01/04 09:30:14;;;;;;;8.73;1.38;;;;;;;17.11;61.99;100028.00;10514442;28;20020;-45
2024/01/04 09:35:20;;;;;;;7.55;1.95;;;;;;;17.09;61.35;100024.81;10533302;28;20035;-47
2024/01/04 09:40:21;;;;;;;7.85;2.00;;;;;;;17.05;60.92;100032.69;10532710;28;20020;-46
2024/01/04 09:45:22;;;;;;;10.85;2.15;;;;;;;17.07;60.67;100043.88;10532812;28;20024;-47
2024/01/04 09:50:22;;;;;;;9.32;2.28;;;;;;;17.14;60.64;100048.81;10532348;28;20104;-45
2024/01/04 09:55:23;;;;;;;10.50;1.80;;;;;;;17.16;61.12;100054.66;10514824;28;20016;-49
2024/01/04 10:00:24;;;;;;;8.90;1.85;;;;;;;17.13;61.30;100058.72;10513367;28;20281;-46
2024/01/04 10:05:25;;;;;;;10.70;2.93;;;;;;;17.07;61.81;100065.31;10519686;28;20020;-50
2024/01/04 10:10:29;;;;;;;7.65;2.03;;;;;;;17.20;60.97;100069.06;10509849;28;20282;-47
2024/01/04 10:15:31;;;;;;;8.43;1.83;;;;;;;17.32;60.86;100081.91;10513519;28;20070;-45
2024/01/04 10:20:33;;;;;;;8.52;2.17;;;;;;;17.36;62.21;100081.00;10531285;28;20035;-45
2024/01/04 10:25:33;;;;;;;15.15;2.60;;;;;;;17.35;62.29;100084.00;10513798;28;20078;-47
2024/01/04 10:30:33;;;;;;;12.30;2.57;;;;;;;17.32;62.26;100069.31;10537660;28;20058;-48
2024/01/04 10:35:34;;;;;;;12.15;5.32;;;;;;;17.36;63.03;100077.53;10521539;28;20278;-48
2024/01/04 10:40:34;;;;;;;11.47;5.27;;;;;;;17.42;63.29;100081.69;10539337;28;20060;-47
2024/01/04 10:45:34;;;;;;;8.37;4.60;;;;;;;17.47;64.30;100090.41;10539373;28;20052;-49
2024/01/04 10:50:36;;;;;;;12.67;6.57;;;;;;;17.42;65.31;100095.88;10538801;28;20273;-45
2024/01/04 10:55:37;;;;;;;9.20;2.90;;;;;;;17.37;63.26;100090.63;10520734;28;20281;-48
2024/01/04 11:00:37;;;;;;;10.05;3.60;;;;;;;17.43;62.00;100091.31;10537974;28;20043;-45
2024/01/04 11:05:40;;;;;;;7.03;2.20;;;;;;;17.42;62.49;100095.09;10538001;28;20028;-47
2024/01/04 11:10:41;;;;;;;7.38;2.03;;;;;;;17.54;62.37;100098.81;10517680;28;20898;-48
2024/01/04 11:15:41;;;;;;;8.98;2.42;;;;;;;17.66;62.65;100092.94;10538233;28;20110;-49
2024/01/04 11:21:03;;;;;;;4.25;2.00;;;;;;;17.70;61.72;100091.25;10519493;28;20107;-48
2024/01/04 11:26:15;;;;;;;6.35;2.00;;;;;;;17.74;61.36;100086.84;10537874;28;20047;-45
2024/01/04 11:31:16;;;;;;;8.50;2.33;;;;;;;17.91;61.66;100086.19;10537267;28;20020;-46
2024/01/04 11:36:21;;;;;;;8.07;2.03;;;;;;;17.98;63.30;100096.47;10519241;28;20020;-45
2024/01/04 11:41:35;;;;;;;5.03;2.10;;;;;;;17.91;63.47;100096.91;10535839;28;20040;-49
2024/01/04 11:46:40;;;;;;;5.47;3.38;;;;;;;17.77;63.24;100090.84;10537273;28;20032;-52
2024/01/04 11:51:49;;;;;;;10.05;2.65;;;;;;;17.78;64.70;100093.19;10518329;28;20034;-46
2024/01/04 11:56:49;;;;;;;16.70;2.20;;;;;;;17.71;64.47;100092.81;10536805;28;20066;-46
2024/01/04 12:01:50;;;;;;;21.63;2.63;;;;;;;17.75;63.54;100088.44;10536221;28;20059;-44
2024/01/04 12:06:50;;;;;;;10.90;2.10;;;;;;;17.70;64.24;100087.78;10536351;28;20038;-45
2024/01/04 12:11:55;;;;;;;7.82;2.13;;;;;;;17.62;64.16;100083.09;10515233;28;20381;-47
2024/01/04 12:16:57;;;;;;;15.75;2.30;;;;;;;17.69;63.15;100081.63;10535716;28;20039;-49
2024/01/04 12:21:57;;;;;;;7.90;2.03;;;;;;;17.73;63.54;100087.94;10534847;28;20027;-49
2024/01/04 12:26:58;;;;;;;10.27;2.37;;;;;;;17.63;63.23;100092.72;10532442;28;20503;-50
2024/01/04 12:31:58;;;;;;;12.23;2.60;;;;;;;17.60;63.37;100102.16;10534187;28;20369;-47
2024/01/04 12:37:06;;;;;;;12.27;2.47;;;;;;;17.55;64.26;100102.31;10534691;28;20016;-46
2024/01/04 12:42:07;;;;;;;17.80;3.22;;;;;;;17.61;64.18;100097.59;10516310;28;20266;-45
2024/01/04 12:47:11;;;;;;;21.10;4.53;;;;;;;17.67;64.33;100107.13;10534689;28;20462;-49
2024/01/04 12:52:12;;;;;;;8.88;2.78;;;;;;;17.66;63.99;100092.94;10531171;28;20293;-47
2024/01/04 12:57:13;;;;;;;13.77;3.53;;;;;;;17.64;65.04;100091.63;10534378;28;20073;-49
2024/01/04 13:02:13;;;;;;;12.13;2.85;;;;;;;17.65;65.19;100085.19;10517974;28;20077;-49
2024/01/04 13:07:14;;;;;;;14.10;3.72;;;;;;;17.58;65.39;100092.84;10523792;28;20036;-49
2024/01/04 13:12:14;;;;;;;17.13;4.40;;;;;;;17.55;65.43;100096.94;10526766;28;20055;-50
2024/01/04 13:17:14;;;;;;;14.20;2.60;;;;;;;17.48;65.46;100096.56;10528707;28;20028;-46
2024/01/04 13:22:15;;;;;;;23.53;4.37;;;;;;;17.40;64.25;100106.09;10517108;28;20890;-48
2024/01/04 13:27:16;;;;;;;20.95;3.38;;;;;;;17.35;65.38;100100.06;10531026;28;20290;-49
2024/01/04 13:32:18;;;;;;;22.58;3.67;;;;;;;17.35;65.88;100110.78;10508444;28;20024;-52
2024/01/04 13:37:18;;;;;;;13.98;3.60;;;;;;;17.29;65.64;100115.47;10508351;28;20031;-46
2024/01/04 13:42:18;;;;;;;14.75;2.78;;;;;;;17.30;65.07;100125.09;10532362;28;20478;-50
2024/01/04 13:47:19;;;;;;;18.75;3.03;;;;;;;17.24;66.37;100123.59;10532360;28;20022;-45
2024/01/04 13:52:19;;;;;;;12.88;3.13;;;;;;;17.19;64.91;100123.72;10527101;28;20031;-50
2024/01/04 13:57:20;;;;;;;11.52;2.28;;;;;;;17.17;65.36;100123.25;10532429;28;20047;-47
2024/01/04 14:02:21;;;;;;;11.43;2.40;;;;;;;17.10;65.28;100129.00;10532432;28;20032;-47
2024/01/04 14:07:22;;;;;;;9.50;2.33;;;;;;;17.09;65.46;100137.31;10540723;28;20028;-50
2024/01/04 14:12:22;;;;;;;11.13;2.75;;;;;;;17.06;63.86;100144.09;10516830;28;20048;-46
2024/01/04 14:17:22;;;;;;;5.70;1.60;;;;;;;17.05;63.92;100139.81;10540200;28;20030;-48
2024/01/04 14:22:23;;;;;;;7.27;1.50;;;;;;;17.06;64.51;100148.66;10539784;28;20641;-51
2024/01/04 14:27:23;;;;;;;8.18;1.70;;;;;;;17.04;64.55;100154.28;10517346;28;20373;-48
2024/01/04 14:32:30;;;;;;;11.73;3.00;;;;;;;17.06;63.92;100152.13;10539013;28;20704;-48
2024/01/04 14:37:31;;;;;;;10.93;1.65;;;;;;;17.01;64.80;100148.72;10539421;28;20373;-50
2024/01/04 14:42:32;;;;;;;11.98;1.80;;;;;;;17.06;65.48;100144.09;10538777;28;20031;-48
2024/01/04 14:47:33;;;;;;;11.90;1.95;;;;;;;17.09;64.47;100145.38;10510975;28;20447;-49
2024/01/04 14:52:33;;;;;;;8.30;1.90;;;;;;;17.10;64.44;100144.28;10538379;28;20030;-53
2024/01/04 14:57:33;;;;;;;6.22;1.58;;;;;;;17.11;63.55;100140.50;10538642;28;20274;-51
2024/01/04 15:02:35;;;;;;;7.43;1.63;;;;;;;17.15;63.30;100136.13;10538044;28;20023;-54
2024/01/04 15:07:36;;;;;;;4.65;1.50;;;;;;;17.12;64.58;100150.13;10537971;28;20293;-50
2024/01/04 15:12:39;;;;;;;4.13;1.10;;;;;;;17.12;63.91;100152.78;10537341;28;20047;-51
2024/01/04 15:17:39;;;;;;;6.97;1.48;;;;;;;17.10;63.00;100163.03;10537761;28;20008;-50
2024/01/04 15:22:40;;;;;;;6.35;1.33;;;;;;;17.08;63.65;100157.97;10519102;28;20035;-47
2024/01/04 15:27:40;;;;;;;5.57;1.45;;;;;;;17.10;63.34;100163.03;10532501;28;20115;-50
2024/01/04 15:32:41;;;;;;;4.65;1.33;;;;;;;17.12;62.87;100175.00;10536978;28;20418;-48
2024/01/04 15:37:41;;;;;;;6.87;1.50;;;;;;;17.11;63.90;100170.75;10537235;28;20042;-51
2024/01/04 15:42:41;;;;;;;5.18;2.00;;;;;;;17.08;62.62;100175.91;10536448;28;20659;-52
2024/01/04 15:47:42;;;;;;;7.10;1.57;;;;;;;17.10;62.79;100173.72;10536500;28;20024;-50
2024/01/04 15:52:42;;;;;;;6.13;1.33;;;;;;;17.19;63.49;100174.63;10536200;28;20028;-46
2024/01/04 15:57:42;;;;;;;11.60;2.10;;;;;;;17.17;61.90;100184.84;10536421;28;20270;-47
2024/01/04 16:02:43;;;;;;;7.60;2.00;;;;;;;17.21;62.84;100193.88;10535384;28;20274;-47
2024/01/04 16:07:44;;;;;;;11.50;1.65;;;;;;;17.18;63.92;100195.28;10535570;28;20285;-48
2024/01/04 16:12:46;;;;;;;10.98;2.17;;;;;;;17.18;63.66;100199.84;10534918;28;20052;-50
2024/01/04 16:17:47;;;;;;;4.78;1.30;;;;;;;17.16;63.89;100199.31;10535399;28;20475;-49
2024/01/04 16:22:48;;;;;;;5.73;1.07;;;;;;;17.15;63.31;100192.38;10534834;28;20110;-48
2024/01/04 16:27:48;;;;;;;5.75;1.40;;;;;;;17.15;64.11;100189.69;10530195;28;20377;-48
2024/01/04 16:32:50;;;;;;;7.93;2.00;;;;;;;17.19;64.78;100188.03;10534912;28;20428;-49
2024/01/04 16:37:51;;;;;;;8.15;2.45;;;;;;;17.18;64.55;100189.91;10534371;28;20301;-49
2024/01/04 16:42:52;;;;;;;7.68;2.00;;;;;;;17.18;63.51;100189.91;10522241;28;20039;-50
2024/01/04 16:47:52;;;;;;;7.22;1.35;;;;;;;17.16;64.98;100183.25;10533703;28;20031;-48
2024/01/04 16:52:52;;;;;;;16.00;1.60;;;;;;;17.18;64.44;100183.75;10534079;28;20391;-47
2024/01/04 16:57:53;;;;;;;12.60;1.73;;;;;;;17.15;64.71;100178.97;10522167;28;20266;-51
2024/01/04 17:02:53;;;;;;;5.07;1.20;;;;;;;17.15;65.29;100195.84;10515795;28;20302;-46
2024/01/04 17:07:53;;;;;;;8.95;1.98;;;;;;;17.13;64.82;100192.66;10532972;28;20020;-48
2024/01/04 17:12:54;;;;;;;8.18;1.30;;;;;;;17.13;65.89;100194.56;10526599;28;20040;-51
2024/01/04 17:17:54;;;;;;;6.63;1.75;;;;;;;17.08;65.17;100192.00;10533071;28;20028;-47
2024/01/04 17:22:54;;;;;;;6.77;3.27;;;;;;;17.15;64.89;100190.47;10533786;28;20363;-48
2024/01/04 17:27:55;;;;;;;11.43;1.98;;;;;;;17.09;64.02;100194.38;10533075;28;20293;-49
2024/01/04 17:32:55;;;;;;;9.20;1.73;;;;;;;17.07;64.98;100193.09;10533315;28;20020;-51
2024/01/04 17:37:55;;;;;;;8.03;1.87;;;;;;;17.01;64.97;100189.69;10531843;28;20269;-48
2024/01/04 17:42:56;;;;;;;16.50;2.67;;;;;;;17.08;65.37;100190.09;10532884;28;20767;-48
2024/01/04 17:47:56;;;;;;;16.23;2.97;;;;;;;17.07;65.14;100193.09;10532356;28;20399;-47
2024/01/04 17:52:56;;;;;;;14.17;2.53;;;;;;;17.24;65.30;100201.31;10512227;28;20281;-45
2024/01/04 17:57:57;;;;;;;12.70;2.63;;;;;;;17.12;64.76;100192.97;10532301;28;20278;-47
2024/01/04 18:02:58;;;;;;;25.10;3.20;;;;;;;17.08;67.24;100197.34;10532575;28;20278;-49
2024/01/04 18:07:59;;;;;;;28.30;3.83;;;;;;;17.17;64.78;100192.91;10531560;28;20020;-48
2024/01/04 18:12:59;;;;;;;21.15;4.07;;;;;;;17.27;64.77;100183.84;10512122;28;20078;-49
2024/01/04 18:18:00;;;;;;;11.10;2.80;;;;;;;17.12;65.82;100175.00;10518048;28;20024;-48
2024/01/04 18:23:00;;;;;;;19.83;3.23;;;;;;;17.03;66.03;100168.75;10532048;28;20032;-46
2024/01/04 18:28:01;;;;;;;13.52;3.13;;;;;;;17.06;64.46;100175.44;10531831;28;20325;-51
2024/01/04 18:33:01;;;;;;;21.75;4.07;;;;;;;17.07;65.81;100169.78;10531842;28;20082;-47
2024/01/04 18:38:02;;;;;;;11.27;3.23;;;;;;;17.09;63.86;100172.94;10507634;28;20029;-48
2024/01/04 18:43:04;;;;;;;11.25;2.88;;;;;;;17.13;64.98;100171.25;10521028;28;20273;-51
2024/01/04 18:48:04;;;;;;;11.55;2.33;;;;;;;17.14;65.59;100166.69;10528046;28;20035;-45
2024/01/04 18:53:05;;;;;;;8.00;3.25;;;;;;;17.00;63.60;100179.28;10530014;28;20480;-46
2024/01/04 18:58:05;;;;;;;10.05;4.03;;;;;;;16.93;64.16;100166.31;10512537;28;20012;-45
2024/01/04 19:03:06;;;;;;;11.63;3.93;;;;;;;16.91;63.54;100161.22;10516917;28;20023;-46
2024/01/04 19:08:06;;;;;;;9.27;4.20;;;;;;;16.94;64.17;100159.84;10511700;28;20282;-48
2024/01/04 19:13:06;;;;;;;9.50;4.10;;;;;;;17.02;63.62;100145.75;10536759;28;20679;-47
2024/01/04 19:18:07;;;;;;;10.17;4.67;;;;;;;17.09;64.16;100153.41;10518737;28;20266;-47
2024/01/04 19:23:07;;;;;;;13.57;5.20;;;;;;;17.17;62.62;100145.47;10535151;28;20278;-45
2024/01/04 19:28:07;;;;;;;7.93;4.30;;;;;;;17.17;62.40;100133.97;10535189;28;20020;-47
2024/01/04 19:33:08;;;;;;;11.83;4.77;;;;;;;17.18;63.28;100128.28;10521406;28;20340;-49
2024/01/04 19:38:10;;;;;;;9.90;5.03;;;;;;;17.16;62.31;100125.09;10536841;28;20381;-46
2024/01/04 19:43:11;;;;;;;6.55;2.72;;;;;;;17.19;61.84;100121.03;10536761;28;20028;-46
2024/01/04 19:48:11;;;;;;;8.65;3.55;;;;;;;17.22;62.68;100117.75;10516835;28;20021;-45
2024/01/04 19:53:11;;;;;;;10.00;4.33;;;;;;;17.20;62.93;100103.88;10492577;28;20020;-44
2024/01/04 19:58:12;;;;;;;8.50;3.27;;;;;;;17.21;62.63;100100.91;10489539;28;20365;-46
2024/01/04 20:03:12;;;;;;;10.77;4.30;;;;;;;17.21;61.78;100095.53;10509427;28;20305;-46
2024/01/04 20:08:12;;;;;;;7.27;3.40;;;;;;;17.21;62.89;100100.91;10509754;28;20321;-49
2024/01/04 20:13:13;;;;;;;8.82;3.65;;;;;;;17.22;61.65;100104.38;10511758;28;20309;-47
2024/01/04 20:18:13;;;;;;;4.95;3.38;;;;;;;17.21;61.50;100094.75;10507247;28;20016;-45
2024/01/04 20:23:13;;;;;;;8.10;3.33;;;;;;;17.22;62.59;100093.66;10512999;28;20024;-47
2024/01/04 20:28:14;;;;;;;7.80;3.27;;;;;;;17.24;62.81;100092.25;10510664;28;20290;-48
2024/01/04 20:33:14;;;;;;;7.43;3.75;;;;;;;17.22;61.34;100081.03;10511987;28;20761;-45
2024/01/04 20:38:14;;;;;;;8.18;2.78;;;;;;;17.24;62.03;100070.81;10508803;28;20024;-46
2024/01/04 20:43:15;;;;;;;6.60;3.07;;;;;;;17.26;62.44;100062.47;10509081;28;20020;-45
2024/01/04 20:48:15;;;;;;;4.70;3.42;;;;;;;17.25;62.19;100061.69;10490357;28;20294;-45
2024/01/04 20:53:15;;;;;;;7.80;3.30;;;;;;;17.25;62.09;100052.84;10512403;28;20028;-48
2024/01/04 20:58:16;;;;;;;5.90;3.13;;;;;;;17.24;61.91;100054.75;10534102;28;20613;-45
2024/01/04 21:03:19;;;;;;;7.30;3.03;;;;;;;17.26;61.55;100030.31;10516248;28;20289;-47
2024/01/04 21:08:19;;;;;;;6.40;3.90;;;;;;;17.27;61.94;100020.41;10533661;28;20039;-47
2024/01/04 21:13:20;;;;;;;5.93;2.87;;;;;;;17.23;62.45;100025.56;10533303;28;20150;-49
2024/01/04 21:18:20;;;;;;;4.33;2.83;;;;;;;17.27;61.11;100017.72;10533601;28;20331;-48
2024/01/04 21:23:20;;;;;;;6.70;3.13;;;;;;;17.24;61.10;100019.13;10515410;28;20028;-44
2024/01/04 21:28:21;;;;;;;6.63;3.25;;;;;;;17.26;61.20;100019.59;10533289;28;20861;-45
2024/01/04 21:33:21;;;;;;;7.38;3.00;;;;;;;17.28;62.19;100006.69;10533599;28;20098;-48
2024/01/04 21:38:22;;;;;;;6.75;3.38;;;;;;;17.28;60.65;99995.97;10533118;28;20047;-45
2024/01/04 21:43:22;;;;;;;5.75;3.03;;;;;;;17.29;61.52;99992.22;10533102;28;20028;-44
2024/01/04 21:48:23;;;;;;;5.90;4.00;;;;;;;17.25;60.74;99981.31;10532618;28;20032;-45
2024/01/04 21:53:23;;;;;;;4.85;3.15;;;;;;;17.22;61.16;99963.16;10532926;28;20024;-48
2024/01/04 21:58:23;;;;;;;5.87;3.03;;;;;;;17.25;61.50;99953.72;10532436;28;20065;-45
2024/01/04 22:03:24;;;;;;;4.53;2.22;;;;;;;17.25;60.40;99945.69;10514552;28;20290;-46
2024/01/04 22:08:25;;;;;;;5.35;2.97;;;;;;;17.28;61.19;99938.91;10532332;28;20028;-46
2024/01/04 22:13:25;;;;;;;4.90;2.47;;;;;;;17.28;61.59;99933.56;10532260;28;20044;-46
2024/01/04 22:18:25;;;;;;;4.90;2.83;;;;;;;17.27;60.63;99919.38;10532254;28;20575;-47
2024/01/04 22:23:25;;;;;;;5.23;2.40;;;;;;;17.30;61.89;99932.19;10515385;28;20031;-47
2024/01/04 22:28:26;;;;;;;4.90;2.23;;;;;;;17.29;60.21;99930.59;10539959;28;20768;-46
2024/01/04 22:33:26;;;;;;;4.30;2.37;;;;;;;17.27;61.23;99911.34;10540148;28;20343;-46
2024/01/04 22:38:28;;;;;;;5.53;2.92;;;;;;;17.28;60.57;99909.44;10539677;28;20282;-46
2024/01/04 22:43:28;;;;;;;5.93;2.60;;;;;;;17.31;60.60;99892.78;10539826;28;20032;-46
2024/01/04 22:48:28;;;;;;;5.63;2.43;;;;;;;17.29;60.79;99885.06;10539252;28;20286;-46
2024/01/04 22:53:29;;;;;;;3.67;2.78;;;;;;;17.28;60.31;99874.63;10539374;28;20653;-47
2024/01/04 22:58:29;;;;;;;6.18;2.63;;;;;;;17.27;60.52;99876.50;10539006;28;20107;-47
2024/01/04 23:03:30;;;;;;;4.67;2.47;;;;;;;17.29;61.23;99870.88;10539243;28;20027;-47
2024/01/04 23:08:30;;;;;;;3.83;2.27;;;;;;;17.28;61.04;99866.56;10538323;28;20288;-49